sensor_id;sensor_type;location;lat;lon;timestamp;temperature;humidity
3053;DHT22;1536;51.098;6.414;2023-09-19T00:02:21;18.80;99.90
3053;DHT22;1536;51.098;6.414;2023-09-19T00:04:48;18.90;99.90
3053;DHT22;1536;51.098;6.414;2023-09-19T00:07:15;18.80;99.90
3053;DHT22;1536;51.098;6.414;2023-09-19T00:09:42;18.80;99.90
3053;DHT22;1536;51.098;6.414;2023-09-19T00:12:09;18.80;99.90
3053;DHT22;1536;51.098;6.414;2023-09-19T00:14:38;18.80;99.90
3053;DHT22;1536;51.098;6.414;2023-09-19T00:17:07;18.80;99.90
3053;DHT22;1536;51.098;6.414;2023-09-19T00:19:35;18.80;99.90
3053;DHT22;1536;51.098;6.414;2023-09-19T00:22:02;18.70;99.90
3053;DHT22;1536;51.098;6.414;2023-09-19T00:24:29;18.70;99.90
3053;DHT22;1536;51.098;6.414;2023-09-19T00:26:56;18.70;99.90
3053;DHT22;1536;51.098;6.414;2023-09-19T00:29:25;18.70;99.90
3053;DHT22;1536;51.098;6.414;2023-09-19T00:31:55;18.70;99.90
3053;DHT22;1536;51.098;6.414;2023-09-19T00:34:23;18.60;99.90
3053;DHT22;1536;51.098;6.414;2023-09-19T00:36:51;18.60;99.90
3053;DHT22;1536;51.098;6.414;2023-09-19T00:39:20;18.60;99.90
3053;DHT22;1536;51.098;6.414;2023-09-19T00:41:47;18.60;99.90
3053;DHT22;1536;51.098;6.414;2023-09-19T00:44:14;18.50;99.90
3053;DHT22;1536;51.098;6.414;2023-09-19T00:46:41;18.60;99.90
3053;DHT22;1536;51.098;6.414;2023-09-19T00:49:09;18.60;99.90
3053;DHT22;1536;51.098;6.414;2023-09-19T00:51:39;18.60;99.90
3053;DHT22;1536;51.098;6.414;2023-09-19T00:54:07;18.60;99.90
3053;DHT22;1536;51.098;6.414;2023-09-19T00:56:35;18.50;99.90
3053;DHT22;1536;51.098;6.414;2023-09-19T00:59:03;18.60;99.90
3053;DHT22;1536;51.098;6.414;2023-09-19T01:01:31;18.50;99.90
3053;DHT22;1536;51.098;6.414;2023-09-19T01:03:58;18.50;99.90
3053;DHT22;1536;51.098;6.414;2023-09-19T01:06:25;18.50;99.90
3053;DHT22;1536;51.098;6.414;2023-09-19T01:08:53;18.50;99.90
3053;DHT22;1536;51.098;6.414;2023-09-19T01:11:27;18.50;99.90
3053;DHT22;1536;51.098;6.414;2023-09-19T01:14:00;18.50;99.90
3053;DHT22;1536;51.098;6.414;2023-09-19T01:16:35;18.50;99.90
3053;DHT22;1536;51.098;6.414;2023-09-19T01:19:16;18.40;99.90
3053;DHT22;1536;51.098;6.414;2023-09-19T01:21:56;18.40;99.90
3053;DHT22;1536;51.098;6.414;2023-09-19T01:24:55;18.40;99.90
3053;DHT22;1536;51.098;6.414;2023-09-19T01:27:52;18.40;99.90
3053;DHT22;1536;51.098;6.414;2023-09-19T01:30:26;18.40;99.90
3053;DHT22;1536;51.098;6.414;2023-09-19T01:32:55;18.40;99.90
3053;DHT22;1536;51.098;6.414;2023-09-19T01:35:24;18.30;99.90
3053;DHT22;1536;51.098;6.414;2023-09-19T01:37:51;18.40;99.90
3053;DHT22;1536;51.098;6.414;2023-09-19T01:40:20;18.40;99.90
3053;DHT22;1536;51.098;6.414;2023-09-19T01:42:52;18.30;99.90
3053;DHT22;1536;51.098;6.414;2023-09-19T01:45:28;18.30;99.90
3053;DHT22;1536;51.098;6.414;2023-09-19T01:48:10;18.30;99.90
3053;DHT22;1536;51.098;6.414;2023-09-19T01:50:44;18.30;99.90
3053;DHT22;1536;51.098;6.414;2023-09-19T01:53:23;18.30;99.90
3053;DHT22;1536;51.098;6.414;2023-09-19T01:55:51;18.20;99.90
3053;DHT22;1536;51.098;6.414;2023-09-19T01:58:24;18.20;99.90
3053;DHT22;1536;51.098;6.414;2023-09-19T02:00:58;18.30;99.90
3053;DHT22;1536;51.098;6.414;2023-09-19T02:03:27;18.20;99.90
3053;DHT22;1536;51.098;6.414;2023-09-19T02:05:56;18.20;99.90
3053;DHT22;1536;51.098;6.414;2023-09-19T02:08:23;18.20;99.90
3053;DHT22;1536;51.098;6.414;2023-09-19T02:10:50;18.20;99.90
3053;DHT22;1536;51.098;6.414;2023-09-19T02:13:19;18.20;99.90
3053;DHT22;1536;51.098;6.414;2023-09-19T02:15:47;18.20;99.90
3053;DHT22;1536;51.098;6.414;2023-09-19T02:18:16;18.20;99.90
3053;DHT22;1536;51.098;6.414;2023-09-19T02:20:44;18.20;99.90
3053;DHT22;1536;51.098;6.414;2023-09-19T02:23:12;18.10;99.90
3053;DHT22;1536;51.098;6.414;2023-09-19T02:25:39;18.10;99.90
3053;DHT22;1536;51.098;6.414;2023-09-19T02:28:06;18.10;99.90
3053;DHT22;1536;51.098;6.414;2023-09-19T02:30:34;18.10;99.90
3053;DHT22;1536;51.098;6.414;2023-09-19T02:33:02;18.10;99.90
3053;DHT22;1536;51.098;6.414;2023-09-19T02:35:31;18.00;99.90
3053;DHT22;1536;51.098;6.414;2023-09-19T02:38:00;18.00;99.90
3053;DHT22;1536;51.098;6.414;2023-09-19T02:40:28;18.00;99.90
3053;DHT22;1536;51.098;6.414;2023-09-19T02:42:55;18.00;99.90
3053;DHT22;1536;51.098;6.414;2023-09-19T02:45:24;18.00;99.90
3053;DHT22;1536;51.098;6.414;2023-09-19T02:47:51;18.00;99.90
3053;DHT22;1536;51.098;6.414;2023-09-19T02:50:19;17.90;99.90
3053;DHT22;1536;51.098;6.414;2023-09-19T02:52:47;17.90;99.90
3053;DHT22;1536;51.098;6.414;2023-09-19T02:55:15;17.90;99.90
3053;DHT22;1536;51.098;6.414;2023-09-19T02:57:48;17.90;99.90
3053;DHT22;1536;51.098;6.414;2023-09-19T03:00:17;17.90;99.90
3053;DHT22;1536;51.098;6.414;2023-09-19T03:02:46;17.80;99.90
3053;DHT22;1536;51.098;6.414;2023-09-19T03:05:14;17.80;99.90
3053;DHT22;1536;51.098;6.414;2023-09-19T03:07:42;17.80;99.90
3053;DHT22;1536;51.098;6.414;2023-09-19T03:10:12;17.80;99.90
3053;DHT22;1536;51.098;6.414;2023-09-19T03:12:41;17.80;99.90
3053;DHT22;1536;51.098;6.414;2023-09-19T03:15:08;17.80;99.90
3053;DHT22;1536;51.098;6.414;2023-09-19T03:17:36;17.80;99.90
3053;DHT22;1536;51.098;6.414;2023-09-19T03:20:03;17.80;99.90
3053;DHT22;1536;51.098;6.414;2023-09-19T03:22:34;17.80;99.90
3053;DHT22;1536;51.098;6.414;2023-09-19T03:25:01;17.70;99.90
3053;DHT22;1536;51.098;6.414;2023-09-19T03:27:35;17.70;99.90
3053;DHT22;1536;51.098;6.414;2023-09-19T03:30:02;17.70;99.90
3053;DHT22;1536;51.098;6.414;2023-09-19T03:32:34;17.70;99.90
3053;DHT22;1536;51.098;6.414;2023-09-19T03:35:01;17.70;99.90
3053;DHT22;1536;51.098;6.414;2023-09-19T03:37:31;17.70;99.90
3053;DHT22;1536;51.098;6.414;2023-09-19T03:39:59;17.70;99.90
3053;DHT22;1536;51.098;6.414;2023-09-19T03:42:30;17.70;99.90
3053;DHT22;1536;51.098;6.414;2023-09-19T03:44:58;17.70;99.90
3053;DHT22;1536;51.098;6.414;2023-09-19T03:47:26;17.70;99.90
3053;DHT22;1536;51.098;6.414;2023-09-19T03:49:53;17.70;99.90
3053;DHT22;1536;51.098;6.414;2023-09-19T03:52:19;17.70;99.90
3053;DHT22;1536;51.098;6.414;2023-09-19T03:54:46;17.70;99.90
3053;DHT22;1536;51.098;6.414;2023-09-19T03:57:13;17.70;99.90
3053;DHT22;1536;51.098;6.414;2023-09-19T03:59:41;17.70;99.90
3053;DHT22;1536;51.098;6.414;2023-09-19T04:02:09;17.70;99.90
3053;DHT22;1536;51.098;6.414;2023-09-19T04:04:47;17.60;99.90
3053;DHT22;1536;51.098;6.414;2023-09-19T04:07:14;17.60;99.90
3053;DHT22;1536;51.098;6.414;2023-09-19T04:09:41;17.60;99.90
3053;DHT22;1536;51.098;6.414;2023-09-19T04:12:08;17.60;99.90
3053;DHT22;1536;51.098;6.414;2023-09-19T04:14:35;17.60;99.90
3053;DHT22;1536;51.098;6.414;2023-09-19T04:17:02;17.60;99.90
3053;DHT22;1536;51.098;6.414;2023-09-19T04:19:32;17.60;99.90
3053;DHT22;1536;51.098;6.414;2023-09-19T04:21:59;17.60;99.90
3053;DHT22;1536;51.098;6.414;2023-09-19T04:24:29;17.60;99.90
3053;DHT22;1536;51.098;6.414;2023-09-19T04:26:58;17.60;99.90
3053;DHT22;1536;51.098;6.414;2023-09-19T04:29:25;17.60;99.90
3053;DHT22;1536;51.098;6.414;2023-09-19T04:31:55;17.60;99.90
3053;DHT22;1536;51.098;6.414;2023-09-19T04:34:22;17.60;99.90
3053;DHT22;1536;51.098;6.414;2023-09-19T04:36:51;17.60;99.90
3053;DHT22;1536;51.098;6.414;2023-09-19T04:39:19;17.60;99.90
3053;DHT22;1536;51.098;6.414;2023-09-19T04:41:46;17.60;99.90
3053;DHT22;1536;51.098;6.414;2023-09-19T04:44:13;17.60;99.90
3053;DHT22;1536;51.098;6.414;2023-09-19T04:46:40;17.60;99.90
3053;DHT22;1536;51.098;6.414;2023-09-19T04:49:07;17.50;99.90
3053;DHT22;1536;51.098;6.414;2023-09-19T04:51:34;17.50;99.90
3053;DHT22;1536;51.098;6.414;2023-09-19T04:54:04;17.50;99.90
3053;DHT22;1536;51.098;6.414;2023-09-19T04:56:31;17.50;99.90
3053;DHT22;1536;51.098;6.414;2023-09-19T04:58:58;17.50;99.90
3053;DHT22;1536;51.098;6.414;2023-09-19T05:01:25;17.50;99.90
3053;DHT22;1536;51.098;6.414;2023-09-19T05:03:52;17.50;99.90
3053;DHT22;1536;51.098;6.414;2023-09-19T05:06:19;17.50;99.90
3053;DHT22;1536;51.098;6.414;2023-09-19T05:08:47;17.50;99.90
3053;DHT22;1536;51.098;6.414;2023-09-19T05:11:17;17.50;99.90
3053;DHT22;1536;51.098;6.414;2023-09-19T05:13:44;17.50;99.90
3053;DHT22;1536;51.098;6.414;2023-09-19T05:16:11;17.40;99.90
3053;DHT22;1536;51.098;6.414;2023-09-19T05:18:38;17.40;99.90
3053;DHT22;1536;51.098;6.414;2023-09-19T05:21:05;17.40;99.90
3053;DHT22;1536;51.098;6.414;2023-09-19T05:23:33;17.40;99.90
3053;DHT22;1536;51.098;6.414;2023-09-19T05:26:00;17.40;99.90
3053;DHT22;1536;51.098;6.414;2023-09-19T05:28:28;17.40;99.90
3053;DHT22;1536;51.098;6.414;2023-09-19T05:30:55;17.40;99.90
3053;DHT22;1536;51.098;6.414;2023-09-19T05:33:36;17.40;99.90
3053;DHT22;1536;51.098;6.414;2023-09-19T05:36:03;17.40;99.90
3053;DHT22;1536;51.098;6.414;2023-09-19T05:38:31;17.40;99.90
3053;DHT22;1536;51.098;6.414;2023-09-19T05:40:58;17.40;99.90
3053;DHT22;1536;51.098;6.414;2023-09-19T05:43:25;17.40;99.90
3053;DHT22;1536;51.098;6.414;2023-09-19T05:45:53;17.40;99.90
3053;DHT22;1536;51.098;6.414;2023-09-19T05:48:22;17.40;99.90
3053;DHT22;1536;51.098;6.414;2023-09-19T05:50:48;17.40;99.90
3053;DHT22;1536;51.098;6.414;2023-09-19T05:53:15;17.40;99.90
3053;DHT22;1536;51.098;6.414;2023-09-19T05:55:44;17.50;99.90
3053;DHT22;1536;51.098;6.414;2023-09-19T05:58:11;17.40;99.90
3053;DHT22;1536;51.098;6.414;2023-09-19T06:00:39;17.50;99.90
3053;DHT22;1536;51.098;6.414;2023-09-19T06:03:09;17.50;99.90
3053;DHT22;1536;51.098;6.414;2023-09-19T06:05:37;17.50;99.90
3053;DHT22;1536;51.098;6.414;2023-09-19T06:08:05;17.50;99.90
3053;DHT22;1536;51.098;6.414;2023-09-19T06:10:33;17.50;99.90
3053;DHT22;1536;51.098;6.414;2023-09-19T06:13:01;17.50;99.90
3053;DHT22;1536;51.098;6.414;2023-09-19T06:15:30;17.50;99.90
3053;DHT22;1536;51.098;6.414;2023-09-19T06:17:59;17.50;99.90
3053;DHT22;1536;51.098;6.414;2023-09-19T06:20:29;17.50;99.90
3053;DHT22;1536;51.098;6.414;2023-09-19T06:22:56;17.50;99.90
3053;DHT22;1536;51.098;6.414;2023-09-19T06:25:23;17.60;99.90
3053;DHT22;1536;51.098;6.414;2023-09-19T06:27:51;17.60;99.90
3053;DHT22;1536;51.098;6.414;2023-09-19T06:30:19;17.60;99.90
3053;DHT22;1536;51.098;6.414;2023-09-19T06:32:47;17.60;99.90
3053;DHT22;1536;51.098;6.414;2023-09-19T06:35:15;17.60;99.90
3053;DHT22;1536;51.098;6.414;2023-09-19T06:37:43;17.60;99.90
3053;DHT22;1536;51.098;6.414;2023-09-19T06:40:11;17.60;99.90
3053;DHT22;1536;51.098;6.414;2023-09-19T06:42:40;17.60;99.90
3053;DHT22;1536;51.098;6.414;2023-09-19T06:45:08;17.60;99.90
3053;DHT22;1536;51.098;6.414;2023-09-19T06:47:37;17.60;99.90
3053;DHT22;1536;51.098;6.414;2023-09-19T06:50:04;17.60;99.90
3053;DHT22;1536;51.098;6.414;2023-09-19T06:52:34;17.60;99.90
3053;DHT22;1536;51.098;6.414;2023-09-19T06:55:03;17.60;99.90
3053;DHT22;1536;51.098;6.414;2023-09-19T06:57:32;17.60;99.90
3053;DHT22;1536;51.098;6.414;2023-09-19T06:59:58;17.70;99.90
3053;DHT22;1536;51.098;6.414;2023-09-19T07:02:28;17.70;99.90
3053;DHT22;1536;51.098;6.414;2023-09-19T07:04:55;17.70;99.90
3053;DHT22;1536;51.098;6.414;2023-09-19T07:07:22;17.70;99.90
3053;DHT22;1536;51.098;6.414;2023-09-19T07:09:49;17.80;99.90
3053;DHT22;1536;51.098;6.414;2023-09-19T07:12:18;17.80;99.90
3053;DHT22;1536;51.098;6.414;2023-09-19T07:14:45;17.80;99.90
3053;DHT22;1536;51.098;6.414;2023-09-19T07:17:12;17.90;99.90
3053;DHT22;1536;51.098;6.414;2023-09-19T07:19:44;17.90;99.90
3053;DHT22;1536;51.098;6.414;2023-09-19T07:22:13;17.90;99.90
3053;DHT22;1536;51.098;6.414;2023-09-19T07:24:40;17.90;99.90
3053;DHT22;1536;51.098;6.414;2023-09-19T07:27:07;17.90;99.90
3053;DHT22;1536;51.098;6.414;2023-09-19T07:29:35;17.90;99.90
3053;DHT22;1536;51.098;6.414;2023-09-19T07:32:04;18.00;99.90
3053;DHT22;1536;51.098;6.414;2023-09-19T07:34:31;18.00;99.90
3053;DHT22;1536;51.098;6.414;2023-09-19T07:36:58;18.00;99.90
3053;DHT22;1536;51.098;6.414;2023-09-19T07:39:25;18.00;99.90
3053;DHT22;1536;51.098;6.414;2023-09-19T07:41:52;18.00;99.90
3053;DHT22;1536;51.098;6.414;2023-09-19T07:44:19;18.10;99.90
3053;DHT22;1536;51.098;6.414;2023-09-19T07:46:48;18.10;99.90
3053;DHT22;1536;51.098;6.414;2023-09-19T07:49:16;18.10;99.90
3053;DHT22;1536;51.098;6.414;2023-09-19T07:51:44;18.20;99.90
3053;DHT22;1536;51.098;6.414;2023-09-19T07:54:12;18.20;99.90
3053;DHT22;1536;51.098;6.414;2023-09-19T07:56:40;18.20;99.90
3053;DHT22;1536;51.098;6.414;2023-09-19T07:59:07;18.30;99.90
3053;DHT22;1536;51.098;6.414;2023-09-19T08:01:35;18.30;99.90
3053;DHT22;1536;51.098;6.414;2023-09-19T08:04:04;18.30;99.90
3053;DHT22;1536;51.098;6.414;2023-09-19T08:06:31;18.30;99.90
3053;DHT22;1536;51.098;6.414;2023-09-19T08:08:58;18.30;99.90
3053;DHT22;1536;51.098;6.414;2023-09-19T08:11:26;18.30;99.90
3053;DHT22;1536;51.098;6.414;2023-09-19T08:13:56;18.40;99.90
3053;DHT22;1536;51.098;6.414;2023-09-19T08:16:23;18.40;99.90
3053;DHT22;1536;51.098;6.414;2023-09-19T08:18:50;18.40;99.90
3053;DHT22;1536;51.098;6.414;2023-09-19T08:21:22;18.50;99.90
3053;DHT22;1536;51.098;6.414;2023-09-19T08:23:49;18.50;99.90
3053;DHT22;1536;51.098;6.414;2023-09-19T08:26:16;18.50;99.90
3053;DHT22;1536;51.098;6.414;2023-09-19T08:28:44;18.50;99.90
3053;DHT22;1536;51.098;6.414;2023-09-19T08:31:11;18.60;99.90
3053;DHT22;1536;51.098;6.414;2023-09-19T08:33:38;18.60;99.90
3053;DHT22;1536;51.098;6.414;2023-09-19T08:36:06;18.60;99.90
3053;DHT22;1536;51.098;6.414;2023-09-19T08:38:37;18.60;99.90
3053;DHT22;1536;51.098;6.414;2023-09-19T08:41:06;18.60;99.90
3053;DHT22;1536;51.098;6.414;2023-09-19T08:43:34;18.70;99.90
3053;DHT22;1536;51.098;6.414;2023-09-19T08:46:06;18.70;99.90
3053;DHT22;1536;51.098;6.414;2023-09-19T08:48:39;18.80;99.90
3053;DHT22;1536;51.098;6.414;2023-09-19T08:51:07;18.80;99.90
3053;DHT22;1536;51.098;6.414;2023-09-19T08:53:41;18.80;99.90
3053;DHT22;1536;51.098;6.414;2023-09-19T08:56:10;18.90;99.90
3053;DHT22;1536;51.098;6.414;2023-09-19T08:58:44;18.90;99.90
3053;DHT22;1536;51.098;6.414;2023-09-19T09:01:15;18.90;99.90
3053;DHT22;1536;51.098;6.414;2023-09-19T09:03:43;19.00;99.90
3053;DHT22;1536;51.098;6.414;2023-09-19T09:06:13;19.00;99.90
3053;DHT22;1536;51.098;6.414;2023-09-19T09:08:42;19.00;99.90
3053;DHT22;1536;51.098;6.414;2023-09-19T09:11:11;19.10;99.90
3053;DHT22;1536;51.098;6.414;2023-09-19T09:13:39;19.10;99.90
3053;DHT22;1536;51.098;6.414;2023-09-19T09:16:07;19.10;99.90
3053;DHT22;1536;51.098;6.414;2023-09-19T09:18:36;19.20;99.90
3053;DHT22;1536;51.098;6.414;2023-09-19T09:21:03;19.20;99.90
3053;DHT22;1536;51.098;6.414;2023-09-19T09:23:31;19.20;99.90
3053;DHT22;1536;51.098;6.414;2023-09-19T09:26:00;19.30;99.90
3053;DHT22;1536;51.098;6.414;2023-09-19T09:28:31;19.20;99.90
3053;DHT22;1536;51.098;6.414;2023-09-19T09:31:01;19.30;99.90
3053;DHT22;1536;51.098;6.414;2023-09-19T09:33:34;19.30;99.90
3053;DHT22;1536;51.098;6.414;2023-09-19T09:36:02;19.30;99.90
3053;DHT22;1536;51.098;6.414;2023-09-19T09:38:43;19.30;99.90
3053;DHT22;1536;51.098;6.414;2023-09-19T09:41:16;19.40;99.90
3053;DHT22;1536;51.098;6.414;2023-09-19T09:43:53;19.40;99.90
3053;DHT22;1536;51.098;6.414;2023-09-19T09:46:21;19.40;99.90
3053;DHT22;1536;51.098;6.414;2023-09-19T09:49:06;19.50;99.90
3053;DHT22;1536;51.098;6.414;2023-09-19T09:51:45;19.50;99.90
3053;DHT22;1536;51.098;6.414;2023-09-19T09:54:15;19.60;99.90
3053;DHT22;1536;51.098;6.414;2023-09-19T09:56:54;19.60;99.90
3053;DHT22;1536;51.098;6.414;2023-09-19T09:59:43;19.70;99.90
3053;DHT22;1536;51.098;6.414;2023-09-19T10:02:12;19.70;99.90
3053;DHT22;1536;51.098;6.414;2023-09-19T10:04:40;19.80;99.90
3053;DHT22;1536;51.098;6.414;2023-09-19T10:07:27;19.80;99.90
3053;DHT22;1536;51.098;6.414;2023-09-19T10:09:58;19.90;99.90
3053;DHT22;1536;51.098;6.414;2023-09-19T10:12:43;19.90;99.90
3053;DHT22;1536;51.098;6.414;2023-09-19T10:15:11;19.90;99.90
3053;DHT22;1536;51.098;6.414;2023-09-19T10:17:43;20.00;99.90
3053;DHT22;1536;51.098;6.414;2023-09-19T10:20:13;20.00;99.90
3053;DHT22;1536;51.098;6.414;2023-09-19T10:23:00;20.00;99.90
3053;DHT22;1536;51.098;6.414;2023-09-19T10:25:28;20.00;99.90
3053;DHT22;1536;51.098;6.414;2023-09-19T10:28:00;20.00;99.90
3053;DHT22;1536;51.098;6.414;2023-09-19T10:30:29;20.00;99.90
3053;DHT22;1536;51.098;6.414;2023-09-19T10:33:01;20.00;99.90
3053;DHT22;1536;51.098;6.414;2023-09-19T10:35:29;20.00;99.90
3053;DHT22;1536;51.098;6.414;2023-09-19T10:38:01;20.00;99.90
3053;DHT22;1536;51.098;6.414;2023-09-19T10:40:28;20.00;99.90
3053;DHT22;1536;51.098;6.414;2023-09-19T10:43:02;20.00;99.90
3053;DHT22;1536;51.098;6.414;2023-09-19T10:45:32;20.00;99.90
3053;DHT22;1536;51.098;6.414;2023-09-19T10:48:07;20.00;99.90
3053;DHT22;1536;51.098;6.414;2023-09-19T10:50:44;20.00;99.90
3053;DHT22;1536;51.098;6.414;2023-09-19T10:53:15;20.00;99.90
3053;DHT22;1536;51.098;6.414;2023-09-19T10:55:59;19.90;99.90
3053;DHT22;1536;51.098;6.414;2023-09-19T10:58:45;19.90;99.90
3053;DHT22;1536;51.098;6.414;2023-09-19T11:01:15;19.90;99.90
3053;DHT22;1536;51.098;6.414;2023-09-19T11:03:43;20.00;99.90
3053;DHT22;1536;51.098;6.414;2023-09-19T11:06:16;20.00;99.90
3053;DHT22;1536;51.098;6.414;2023-09-19T11:08:59;20.00;99.90
3053;DHT22;1536;51.098;6.414;2023-09-19T11:11:49;20.00;99.90
3053;DHT22;1536;51.098;6.414;2023-09-19T11:14:40;20.00;99.90
3053;DHT22;1536;51.098;6.414;2023-09-19T11:17:31;20.00;99.90
3053;DHT22;1536;51.098;6.414;2023-09-19T11:20:23;20.00;99.90
3053;DHT22;1536;51.098;6.414;2023-09-19T11:23:17;19.90;99.90
3053;DHT22;1536;51.098;6.414;2023-09-19T11:25:48;19.90;99.90
3053;DHT22;1536;51.098;6.414;2023-09-19T11:28:35;20.00;99.90
3053;DHT22;1536;51.098;6.414;2023-09-19T11:34:57;20.00;99.90
3053;DHT22;1536;51.098;6.414;2023-09-19T11:38:01;20.00;99.90
3053;DHT22;1536;51.098;6.414;2023-09-19T11:40:45;20.00;99.90
3053;DHT22;1536;51.098;6.414;2023-09-19T11:43:31;20.10;99.90
3053;DHT22;1536;51.098;6.414;2023-09-19T11:46:06;20.10;99.90
3053;DHT22;1536;51.098;6.414;2023-09-19T11:48:35;20.10;99.90
3053;DHT22;1536;51.098;6.414;2023-09-19T11:51:19;20.10;99.90
3053;DHT22;1536;51.098;6.414;2023-09-19T11:53:52;20.20;99.90
3053;DHT22;1536;51.098;6.414;2023-09-19T11:56:20;20.20;99.90
3053;DHT22;1536;51.098;6.414;2023-09-19T11:58:50;20.20;99.90
3053;DHT22;1536;51.098;6.414;2023-09-19T12:01:24;20.20;99.90
3053;DHT22;1536;51.098;6.414;2023-09-19T12:03:55;20.30;99.90
3053;DHT22;1536;51.098;6.414;2023-09-19T12:06:26;20.30;99.90
3053;DHT22;1536;51.098;6.414;2023-09-19T12:08:55;20.30;99.90
3053;DHT22;1536;51.098;6.414;2023-09-19T12:11:29;20.30;99.90
3053;DHT22;1536;51.098;6.414;2023-09-19T12:13:59;20.30;99.90
3053;DHT22;1536;51.098;6.414;2023-09-19T12:16:26;20.30;99.90
3053;DHT22;1536;51.098;6.414;2023-09-19T12:18:56;20.40;99.90
3053;DHT22;1536;51.098;6.414;2023-09-19T12:21:26;20.40;99.90
3053;DHT22;1536;51.098;6.414;2023-09-19T12:24:06;20.40;99.90
3053;DHT22;1536;51.098;6.414;2023-09-19T12:26:40;20.40;99.90
3053;DHT22;1536;51.098;6.414;2023-09-19T12:29:14;20.50;99.90
3053;DHT22;1536;51.098;6.414;2023-09-19T12:31:48;20.50;99.90
3053;DHT22;1536;51.098;6.414;2023-09-19T12:34:22;20.50;99.90
3053;DHT22;1536;51.098;6.414;2023-09-19T12:37:08;20.60;99.90
3053;DHT22;1536;51.098;6.414;2023-09-19T12:39:48;20.60;99.90
3053;DHT22;1536;51.098;6.414;2023-09-19T12:42:21;20.60;99.90
3053;DHT22;1536;51.098;6.414;2023-09-19T12:44:50;20.70;99.90
3053;DHT22;1536;51.098;6.414;2023-09-19T12:47:24;20.70;99.90
3053;DHT22;1536;51.098;6.414;2023-09-19T12:50:12;20.80;99.90
3053;DHT22;1536;51.098;6.414;2023-09-19T12:52:47;20.80;99.90
3053;DHT22;1536;51.098;6.414;2023-09-19T12:55:24;20.80;99.90
3053;DHT22;1536;51.098;6.414;2023-09-19T12:58:11;20.80;99.90
3053;DHT22;1536;51.098;6.414;2023-09-19T13:00:52;20.90;99.90
3053;DHT22;1536;51.098;6.414;2023-09-19T13:03:26;21.00;99.90
3053;DHT22;1536;51.098;6.414;2023-09-19T13:06:01;21.00;99.90
3053;DHT22;1536;51.098;6.414;2023-09-19T13:08:44;21.10;99.90
3053;DHT22;1536;51.098;6.414;2023-09-19T13:11:19;21.10;99.90
3053;DHT22;1536;51.098;6.414;2023-09-19T13:16:56;21.20;99.90
3053;DHT22;1536;51.098;6.414;2023-09-19T13:19:39;21.20;99.90
3053;DHT22;1536;51.098;6.414;2023-09-19T13:22:37;21.20;99.90
3053;DHT22;1536;51.098;6.414;2023-09-19T13:25:13;21.30;99.90
3053;DHT22;1536;51.098;6.414;2023-09-19T13:27:44;21.30;99.90
3053;DHT22;1536;51.098;6.414;2023-09-19T13:30:26;21.30;99.90
3053;DHT22;1536;51.098;6.414;2023-09-19T13:33:05;21.30;99.90
3053;DHT22;1536;51.098;6.414;2023-09-19T13:35:46;21.30;99.90
3053;DHT22;1536;51.098;6.414;2023-09-19T13:38:13;21.30;99.90
3053;DHT22;1536;51.098;6.414;2023-09-19T13:40:45;21.30;99.90
3053;DHT22;1536;51.098;6.414;2023-09-19T13:43:25;21.30;99.90
3053;DHT22;1536;51.098;6.414;2023-09-19T13:46:06;21.30;99.90
3053;DHT22;1536;51.098;6.414;2023-09-19T13:48:38;21.30;99.90
3053;DHT22;1536;51.098;6.414;2023-09-19T13:51:06;21.30;99.90
3053;DHT22;1536;51.098;6.414;2023-09-19T13:53:33;21.30;99.90
3053;DHT22;1536;51.098;6.414;2023-09-19T13:56:05;21.30;99.90
3053;DHT22;1536;51.098;6.414;2023-09-19T13:58:32;21.30;99.90
3053;DHT22;1536;51.098;6.414;2023-09-19T14:01:28;21.30;99.90
3053;DHT22;1536;51.098;6.414;2023-09-19T14:03:55;21.30;99.90
3053;DHT22;1536;51.098;6.414;2023-09-19T14:06:22;21.40;99.90
3053;DHT22;1536;51.098;6.414;2023-09-19T14:08:49;21.40;99.90
3053;DHT22;1536;51.098;6.414;2023-09-19T14:11:16;21.40;99.90
3053;DHT22;1536;51.098;6.414;2023-09-19T14:13:43;21.40;99.90
3053;DHT22;1536;51.098;6.414;2023-09-19T14:16:12;21.50;99.90
3053;DHT22;1536;51.098;6.414;2023-09-19T14:18:40;21.50;99.90
3053;DHT22;1536;51.098;6.414;2023-09-19T14:31:37;21.40;99.90
3053;DHT22;1536;51.098;6.414;2023-09-19T14:34:06;21.40;99.90
3053;DHT22;1536;51.098;6.414;2023-09-19T14:43:17;21.20;99.90
3053;DHT22;1536;51.098;6.414;2023-09-19T14:45:44;21.20;99.90
3053;DHT22;1536;51.098;6.414;2023-09-19T14:48:11;21.10;99.90
3053;DHT22;1536;51.098;6.414;2023-09-19T15:05:09;21.00;99.90
3053;DHT22;1536;51.098;6.414;2023-09-19T15:07:36;21.00;99.90
3053;DHT22;1536;51.098;6.414;2023-09-19T15:10:04;20.90;99.90
3053;DHT22;1536;51.098;6.414;2023-09-19T15:12:35;20.90;99.90
3053;DHT22;1536;51.098;6.414;2023-09-19T15:15:03;20.90;99.90
3053;DHT22;1536;51.098;6.414;2023-09-19T15:17:30;20.90;99.90
3053;DHT22;1536;51.098;6.414;2023-09-19T15:19:57;20.90;99.90
3053;DHT22;1536;51.098;6.414;2023-09-19T15:22:26;20.90;99.90
3053;DHT22;1536;51.098;6.414;2023-09-19T15:24:52;20.90;99.90
3053;DHT22;1536;51.098;6.414;2023-09-19T15:27:19;20.90;99.90
3053;DHT22;1536;51.098;6.414;2023-09-19T15:29:46;20.90;99.90
3053;DHT22;1536;51.098;6.414;2023-09-19T15:32:13;21.00;99.90
3053;DHT22;1536;51.098;6.414;2023-09-19T15:34:39;21.00;99.90
3053;DHT22;1536;51.098;6.414;2023-09-19T15:37:06;21.10;99.90
3053;DHT22;1536;51.098;6.414;2023-09-19T15:39:34;21.10;99.90
3053;DHT22;1536;51.098;6.414;2023-09-19T15:42:02;21.10;99.90
3053;DHT22;1536;51.098;6.414;2023-09-19T15:44:29;21.10;99.90
3053;DHT22;1536;51.098;6.414;2023-09-19T15:46:56;21.10;99.90
3053;DHT22;1536;51.098;6.414;2023-09-19T15:49:23;21.10;99.90
3053;DHT22;1536;51.098;6.414;2023-09-19T15:51:50;21.10;99.90
3053;DHT22;1536;51.098;6.414;2023-09-19T15:54:17;21.10;99.90
3053;DHT22;1536;51.098;6.414;2023-09-19T15:56:46;21.10;99.90
3053;DHT22;1536;51.098;6.414;2023-09-19T15:59:14;21.20;99.90
3053;DHT22;1536;51.098;6.414;2023-09-19T16:01:55;21.20;99.90
3053;DHT22;1536;51.098;6.414;2023-09-19T16:04:21;21.20;99.90
3053;DHT22;1536;51.098;6.414;2023-09-19T16:06:48;21.20;99.90
3053;DHT22;1536;51.098;6.414;2023-09-19T16:09:15;21.10;99.90
3053;DHT22;1536;51.098;6.414;2023-09-19T16:11:41;21.10;99.90
3053;DHT22;1536;51.098;6.414;2023-09-19T16:14:10;21.10;99.90
3053;DHT22;1536;51.098;6.414;2023-09-19T16:16:37;21.10;99.90
3053;DHT22;1536;51.098;6.414;2023-09-19T16:19:04;21.10;99.90
3053;DHT22;1536;51.098;6.414;2023-09-19T16:21:37;21.00;99.90
3053;DHT22;1536;51.098;6.414;2023-09-19T16:24:06;21.00;99.90
3053;DHT22;1536;51.098;6.414;2023-09-19T16:26:34;21.00;99.90
3053;DHT22;1536;51.098;6.414;2023-09-19T16:29:03;21.00;99.90
3053;DHT22;1536;51.098;6.414;2023-09-19T16:31:31;21.00;99.90
3053;DHT22;1536;51.098;6.414;2023-09-19T16:33:59;21.00;99.90
3053;DHT22;1536;51.098;6.414;2023-09-19T16:36:25;21.00;99.90
3053;DHT22;1536;51.098;6.414;2023-09-19T16:38:53;21.00;99.90
3053;DHT22;1536;51.098;6.414;2023-09-19T16:41:20;20.90;99.90
3053;DHT22;1536;51.098;6.414;2023-09-19T16:43:47;20.90;99.90
3053;DHT22;1536;51.098;6.414;2023-09-19T16:46:14;20.90;99.90
3053;DHT22;1536;51.098;6.414;2023-09-19T16:48:45;20.90;99.90
3053;DHT22;1536;51.098;6.414;2023-09-19T16:51:13;20.90;99.90
3053;DHT22;1536;51.098;6.414;2023-09-19T16:53:41;20.90;99.90
3053;DHT22;1536;51.098;6.414;2023-09-19T16:56:08;20.90;99.90
3053;DHT22;1536;51.098;6.414;2023-09-19T16:58:36;20.80;99.90
3053;DHT22;1536;51.098;6.414;2023-09-19T17:01:05;20.80;99.90
3053;DHT22;1536;51.098;6.414;2023-09-19T17:03:34;20.80;99.90